sensor_id;sensor_type;location;lat;lon;timestamp;temperature;humidity
17827;DHT22;9038;48.208;16.308;2023-06-22T00:00:19;24.10;99.90
17827;DHT22;9038;48.208;16.308;2023-06-22T00:02:22;24.10;99.90
17827;DHT22;9038;48.208;16.308;2023-06-22T00:04:23;24.10;99.90
17827;DHT22;9038;48.208;16.308;2023-06-22T00:06:25;24.10;99.90
17827;DHT22;9038;48.208;16.308;2023-06-22T00:08:29;24.10;99.90
17827;DHT22;9038;48.208;16.308;2023-06-22T00:10:31;24.10;99.90
17827;DHT22;9038;48.208;16.308;2023-06-22T00:12:33;24.10;99.90
17827;DHT22;9038;48.208;16.308;2023-06-22T00:14:34;24.00;99.90
17827;DHT22;9038;48.208;16.308;2023-06-22T00:16:36;23.90;99.90
17827;DHT22;9038;48.208;16.308;2023-06-22T00:18:38;23.90;99.90
17827;DHT22;9038;48.208;16.308;2023-06-22T00:20:41;24.00;99.90
17827;DHT22;9038;48.208;16.308;2023-06-22T00:22:43;24.00;99.90
17827;DHT22;9038;48.208;16.308;2023-06-22T00:24:47;24.00;99.90
17827;DHT22;9038;48.208;16.308;2023-06-22T00:26:49;24.00;99.90
17827;DHT22;9038;48.208;16.308;2023-06-22T00:28:51;24.00;99.90
17827;DHT22;9038;48.208;16.308;2023-06-22T00:30:53;23.90;99.90
17827;DHT22;9038;48.208;16.308;2023-06-22T00:32:55;23.90;99.90
17827;DHT22;9038;48.208;16.308;2023-06-22T00:34:57;23.90;99.90
17827;DHT22;9038;48.208;16.308;2023-06-22T00:36:59;23.80;99.90
17827;DHT22;9038;48.208;16.308;2023-06-22T00:39:01;23.80;99.90
17827;DHT22;9038;48.208;16.308;2023-06-22T00:41:04;23.70;99.90
17827;DHT22;9038;48.208;16.308;2023-06-22T00:43:06;23.60;99.90
17827;DHT22;9038;48.208;16.308;2023-06-22T00:45:09;23.60;99.90
17827;DHT22;9038;48.208;16.308;2023-06-22T00:47:11;23.60;99.90
17827;DHT22;9038;48.208;16.308;2023-06-22T00:49:14;23.70;99.90
17827;DHT22;9038;48.208;16.308;2023-06-22T00:51:16;23.70;99.90
17827;DHT22;9038;48.208;16.308;2023-06-22T00:53:18;23.70;99.90
17827;DHT22;9038;48.208;16.308;2023-06-22T00:55:20;23.80;99.90
17827;DHT22;9038;48.208;16.308;2023-06-22T00:57:25;23.80;99.90
17827;DHT22;9038;48.208;16.308;2023-06-22T00:59:28;23.80;99.90
17827;DHT22;9038;48.208;16.308;2023-06-22T01:01:30;23.80;99.90
17827;DHT22;9038;48.208;16.308;2023-06-22T01:03:32;23.80;99.90
17827;DHT22;9038;48.208;16.308;2023-06-22T01:05:35;23.70;99.90
17827;DHT22;9038;48.208;16.308;2023-06-22T01:07:41;23.80;99.90
17827;DHT22;9038;48.208;16.308;2023-06-22T01:09:54;23.80;99.90
17827;DHT22;9038;48.208;16.308;2023-06-22T01:12:02;23.80;99.90
17827;DHT22;9038;48.208;16.308;2023-06-22T01:14:12;23.80;99.90
17827;DHT22;9038;48.208;16.308;2023-06-22T01:16:18;23.70;99.90
17827;DHT22;9038;48.208;16.308;2023-06-22T01:18:22;23.70;99.90
17827;DHT22;9038;48.208;16.308;2023-06-22T01:20:27;23.70;99.90
17827;DHT22;9038;48.208;16.308;2023-06-22T01:22:31;23.70;99.90
17827;DHT22;9038;48.208;16.308;2023-06-22T01:24:45;23.70;99.90
17827;DHT22;9038;48.208;16.308;2023-06-22T01:26:57;23.70;99.90
17827;DHT22;9038;48.208;16.308;2023-06-22T01:29:04;23.70;99.90
17827;DHT22;9038;48.208;16.308;2023-06-22T01:31:07;23.70;99.90
17827;DHT22;9038;48.208;16.308;2023-06-22T01:33:10;23.70;99.90
17827;DHT22;9038;48.208;16.308;2023-06-22T01:35:13;23.70;99.90
17827;DHT22;9038;48.208;16.308;2023-06-22T01:37:16;23.70;99.90
17827;DHT22;9038;48.208;16.308;2023-06-22T01:39:18;23.60;99.90
17827;DHT22;9038;48.208;16.308;2023-06-22T01:41:21;23.60;99.90
17827;DHT22;9038;48.208;16.308;2023-06-22T01:43:24;23.50;99.90
17827;DHT22;9038;48.208;16.308;2023-06-22T01:45:28;23.50;99.90
17827;DHT22;9038;48.208;16.308;2023-06-22T01:47:30;23.40;99.90
17827;DHT22;9038;48.208;16.308;2023-06-22T01:49:32;23.40;99.90
17827;DHT22;9038;48.208;16.308;2023-06-22T01:51:34;23.30;99.90
17827;DHT22;9038;48.208;16.308;2023-06-22T01:53:36;23.30;99.90
17827;DHT22;9038;48.208;16.308;2023-06-22T01:55:38;23.30;99.90
17827;DHT22;9038;48.208;16.308;2023-06-22T01:57:40;23.30;99.90
17827;DHT22;9038;48.208;16.308;2023-06-22T01:59:49;23.30;99.90
17827;DHT22;9038;48.208;16.308;2023-06-22T02:01:59;23.20;99.90
17827;DHT22;9038;48.208;16.308;2023-06-22T02:04:06;23.10;99.90
17827;DHT22;9038;48.208;16.308;2023-06-22T02:06:14;23.20;99.90
17827;DHT22;9038;48.208;16.308;2023-06-22T02:08:26;23.10;99.90
17827;DHT22;9038;48.208;16.308;2023-06-22T02:10:31;23.10;99.90
17827;DHT22;9038;48.208;16.308;2023-06-22T02:12:34;23.10;99.90
17827;DHT22;9038;48.208;16.308;2023-06-22T02:14:37;23.10;99.90
17827;DHT22;9038;48.208;16.308;2023-06-22T02:16:40;23.10;99.90
17827;DHT22;9038;48.208;16.308;2023-06-22T02:18:47;23.10;99.90
17827;DHT22;9038;48.208;16.308;2023-06-22T02:20:51;23.10;99.90
17827;DHT22;9038;48.208;16.308;2023-06-22T02:22:53;23.00;99.90
17827;DHT22;9038;48.208;16.308;2023-06-22T02:24:56;23.00;99.90
17827;DHT22;9038;48.208;16.308;2023-06-22T02:26:58;22.90;99.90
17827;DHT22;9038;48.208;16.308;2023-06-22T02:29:00;22.90;99.90
17827;DHT22;9038;48.208;16.308;2023-06-22T02:31:02;22.90;99.90
17827;DHT22;9038;48.208;16.308;2023-06-22T02:33:04;22.90;99.90
17827;DHT22;9038;48.208;16.308;2023-06-22T02:35:08;22.90;99.90
17827;DHT22;9038;48.208;16.308;2023-06-22T02:37:10;22.90;99.90
17827;DHT22;9038;48.208;16.308;2023-06-22T02:39:13;22.90;99.90
17827;DHT22;9038;48.208;16.308;2023-06-22T02:41:15;22.90;99.90
17827;DHT22;9038;48.208;16.308;2023-06-22T02:43:18;22.90;99.90
17827;DHT22;9038;48.208;16.308;2023-06-22T02:45:20;22.90;99.90
17827;DHT22;9038;48.208;16.308;2023-06-22T02:47:22;22.80;99.90
17827;DHT22;9038;48.208;16.308;2023-06-22T02:49:24;22.90;99.90
17827;DHT22;9038;48.208;16.308;2023-06-22T02:51:27;22.80;99.90
17827;DHT22;9038;48.208;16.308;2023-06-22T02:53:29;22.80;99.90
17827;DHT22;9038;48.208;16.308;2023-06-22T02:55:32;22.80;99.90
17827;DHT22;9038;48.208;16.308;2023-06-22T02:57:34;22.80;99.90
17827;DHT22;9038;48.208;16.308;2023-06-22T02:59:36;22.80;99.90
17827;DHT22;9038;48.208;16.308;2023-06-22T03:01:41;22.80;99.90
17827;DHT22;9038;48.208;16.308;2023-06-22T03:03:43;22.70;99.90
17827;DHT22;9038;48.208;16.308;2023-06-22T03:05:45;22.80;99.90
17827;DHT22;9038;48.208;16.308;2023-06-22T03:07:48;22.80;99.90
17827;DHT22;9038;48.208;16.308;2023-06-22T03:09:52;22.70;99.90
17827;DHT22;9038;48.208;16.308;2023-06-22T03:11:54;22.70;99.90
17827;DHT22;9038;48.208;16.308;2023-06-22T03:13:56;22.70;99.90
17827;DHT22;9038;48.208;16.308;2023-06-22T03:15:58;22.70;99.90
17827;DHT22;9038;48.208;16.308;2023-06-22T03:18:00;22.80;99.90
17827;DHT22;9038;48.208;16.308;2023-06-22T03:20:03;22.80;99.90
17827;DHT22;9038;48.208;16.308;2023-06-22T03:22:09;22.80;99.90
17827;DHT22;9038;48.208;16.308;2023-06-22T03:24:12;22.80;99.90
17827;DHT22;9038;48.208;16.308;2023-06-22T03:26:16;22.80;99.90
17827;DHT22;9038;48.208;16.308;2023-06-22T03:28:18;22.90;99.90
17827;DHT22;9038;48.208;16.308;2023-06-22T03:30:20;22.80;99.90
17827;DHT22;9038;48.208;16.308;2023-06-22T03:32:22;22.90;99.90
17827;DHT22;9038;48.208;16.308;2023-06-22T03:34:24;22.90;99.90
17827;DHT22;9038;48.208;16.308;2023-06-22T03:36:26;22.90;99.90
17827;DHT22;9038;48.208;16.308;2023-06-22T03:38:28;22.80;99.90
17827;DHT22;9038;48.208;16.308;2023-06-22T03:40:31;22.80;99.90
17827;DHT22;9038;48.208;16.308;2023-06-22T03:42:33;22.90;99.90
17827;DHT22;9038;48.208;16.308;2023-06-22T03:44:36;22.90;99.90
17827;DHT22;9038;48.208;16.308;2023-06-22T03:46:38;22.90;99.90
17827;DHT22;9038;48.208;16.308;2023-06-22T03:48:40;23.00;99.90
17827;DHT22;9038;48.208;16.308;2023-06-22T03:50:41;23.00;99.90
17827;DHT22;9038;48.208;16.308;2023-06-22T03:52:44;23.10;99.90
17827;DHT22;9038;48.208;16.308;2023-06-22T03:54:46;23.10;99.90
17827;DHT22;9038;48.208;16.308;2023-06-22T03:56:49;23.10;99.90
17827;DHT22;9038;48.208;16.308;2023-06-22T03:58:51;23.20;99.90
17827;DHT22;9038;48.208;16.308;2023-06-22T04:00:53;23.30;99.90
17827;DHT22;9038;48.208;16.308;2023-06-22T04:02:55;23.30;99.90
17827;DHT22;9038;48.208;16.308;2023-06-22T04:04:57;23.40;99.90
17827;DHT22;9038;48.208;16.308;2023-06-22T04:06:59;23.50;99.90
17827;DHT22;9038;48.208;16.308;2023-06-22T04:09:01;23.50;99.90
17827;DHT22;9038;48.208;16.308;2023-06-22T04:11:03;23.50;99.90
17827;DHT22;9038;48.208;16.308;2023-06-22T04:13:07;23.60;99.90
17827;DHT22;9038;48.208;16.308;2023-06-22T04:15:09;23.70;99.90
17827;DHT22;9038;48.208;16.308;2023-06-22T04:17:12;23.80;99.90
17827;DHT22;9038;48.208;16.308;2023-06-22T04:19:15;23.90;99.90
17827;DHT22;9038;48.208;16.308;2023-06-22T04:21:18;23.90;99.90
17827;DHT22;9038;48.208;16.308;2023-06-22T04:23:20;24.00;99.90
17827;DHT22;9038;48.208;16.308;2023-06-22T04:25:22;24.00;99.90
17827;DHT22;9038;48.208;16.308;2023-06-22T04:27:24;24.10;99.90
17827;DHT22;9038;48.208;16.308;2023-06-22T04:29:27;24.10;99.90
17827;DHT22;9038;48.208;16.308;2023-06-22T04:31:30;24.20;99.90
17827;DHT22;9038;48.208;16.308;2023-06-22T04:33:37;24.20;99.90
17827;DHT22;9038;48.208;16.308;2023-06-22T04:35:41;24.40;99.90
17827;DHT22;9038;48.208;16.308;2023-06-22T04:37:43;24.40;99.90
17827;DHT22;9038;48.208;16.308;2023-06-22T04:39:48;24.40;99.90
17827;DHT22;9038;48.208;16.308;2023-06-22T04:41:50;24.40;99.90
17827;DHT22;9038;48.208;16.308;2023-06-22T04:43:53;24.50;99.90
17827;DHT22;9038;48.208;16.308;2023-06-22T04:46:01;24.50;99.90
17827;DHT22;9038;48.208;16.308;2023-06-22T04:48:05;24.60;99.90
17827;DHT22;9038;48.208;16.308;2023-06-22T04:50:07;24.60;99.90
17827;DHT22;9038;48.208;16.308;2023-06-22T04:52:11;24.70;99.90
17827;DHT22;9038;48.208;16.308;2023-06-22T04:54:13;24.80;99.90
17827;DHT22;9038;48.208;16.308;2023-06-22T04:56:15;24.80;99.90
17827;DHT22;9038;48.208;16.308;2023-06-22T04:58:18;24.90;99.90
17827;DHT22;9038;48.208;16.308;2023-06-22T05:00:20;24.90;99.90
17827;DHT22;9038;48.208;16.308;2023-06-22T05:02:24;24.90;99.90
17827;DHT22;9038;48.208;16.308;2023-06-22T05:04:29;24.90;99.90
17827;DHT22;9038;48.208;16.308;2023-06-22T05:06:31;25.00;99.90
17827;DHT22;9038;48.208;16.308;2023-06-22T05:08:33;25.00;99.90
17827;DHT22;9038;48.208;16.308;2023-06-22T05:10:35;25.10;99.90
17827;DHT22;9038;48.208;16.308;2023-06-22T05:12:37;25.20;99.90
17827;DHT22;9038;48.208;16.308;2023-06-22T05:14:39;25.20;99.90
17827;DHT22;9038;48.208;16.308;2023-06-22T05:16:42;25.30;99.90
17827;DHT22;9038;48.208;16.308;2023-06-22T05:18:45;25.30;99.90
17827;DHT22;9038;48.208;16.308;2023-06-22T05:20:47;25.30;99.90
17827;DHT22;9038;48.208;16.308;2023-06-22T05:22:49;25.30;99.90
17827;DHT22;9038;48.208;16.308;2023-06-22T05:24:51;25.30;99.90
17827;DHT22;9038;48.208;16.308;2023-06-22T05:26:53;25.40;99.90
17827;DHT22;9038;48.208;16.308;2023-06-22T05:28:56;25.50;99.90
17827;DHT22;9038;48.208;16.308;2023-06-22T05:30:58;25.70;99.90
17827;DHT22;9038;48.208;16.308;2023-06-22T05:33:00;25.70;99.90
17827;DHT22;9038;48.208;16.308;2023-06-22T05:35:09;25.70;99.90
17827;DHT22;9038;48.208;16.308;2023-06-22T05:37:11;25.60;99.90
17827;DHT22;9038;48.208;16.308;2023-06-22T05:39:14;25.60;99.90
17827;DHT22;9038;48.208;16.308;2023-06-22T05:41:16;25.50;99.90
17827;DHT22;9038;48.208;16.308;2023-06-22T05:43:18;25.50;99.90
17827;DHT22;9038;48.208;16.308;2023-06-22T05:45:20;25.50;99.90
17827;DHT22;9038;48.208;16.308;2023-06-22T05:47:22;25.60;99.90
17827;DHT22;9038;48.208;16.308;2023-06-22T05:49:23;25.60;99.90
17827;DHT22;9038;48.208;16.308;2023-06-22T05:51:31;25.60;99.90
17827;DHT22;9038;48.208;16.308;2023-06-22T05:53:33;25.60;99.90
17827;DHT22;9038;48.208;16.308;2023-06-22T05:55:35;25.60;99.90
17827;DHT22;9038;48.208;16.308;2023-06-22T05:57:37;25.70;99.90
17827;DHT22;9038;48.208;16.308;2023-06-22T05:59:39;25.70;99.90
17827;DHT22;9038;48.208;16.308;2023-06-22T06:01:40;25.60;99.90
17827;DHT22;9038;48.208;16.308;2023-06-22T06:03:42;25.80;99.90
17827;DHT22;9038;48.208;16.308;2023-06-22T06:05:44;25.90;99.90
17827;DHT22;9038;48.208;16.308;2023-06-22T06:07:48;26.10;99.90
17827;DHT22;9038;48.208;16.308;2023-06-22T06:09:50;26.20;99.90
17827;DHT22;9038;48.208;16.308;2023-06-22T06:11:52;26.30;99.90
17827;DHT22;9038;48.208;16.308;2023-06-22T06:13:54;26.30;99.90
17827;DHT22;9038;48.208;16.308;2023-06-22T06:15:56;26.30;99.90
17827;DHT22;9038;48.208;16.308;2023-06-22T06:17:59;26.40;99.90
17827;DHT22;9038;48.208;16.308;2023-06-22T06:20:03;26.40;99.90
17827;DHT22;9038;48.208;16.308;2023-06-22T06:22:05;26.40;99.90
17827;DHT22;9038;48.208;16.308;2023-06-22T06:24:09;26.30;99.90
17827;DHT22;9038;48.208;16.308;2023-06-22T06:26:11;26.40;99.90
17827;DHT22;9038;48.208;16.308;2023-06-22T06:28:13;26.40;99.90
17827;DHT22;9038;48.208;16.308;2023-06-22T06:30:16;26.50;99.90
17827;DHT22;9038;48.208;16.308;2023-06-22T06:32:18;26.50;99.90
17827;DHT22;9038;48.208;16.308;2023-06-22T06:34:20;26.50;99.90
17827;DHT22;9038;48.208;16.308;2023-06-22T06:36:22;26.60;99.90
17827;DHT22;9038;48.208;16.308;2023-06-22T06:38:24;26.60;99.90
17827;DHT22;9038;48.208;16.308;2023-06-22T06:40:27;26.60;99.90
17827;DHT22;9038;48.208;16.308;2023-06-22T06:42:29;26.70;99.90
17827;DHT22;9038;48.208;16.308;2023-06-22T06:44:31;26.70;99.90
17827;DHT22;9038;48.208;16.308;2023-06-22T06:46:33;26.80;99.90
17827;DHT22;9038;48.208;16.308;2023-06-22T06:48:35;26.90;99.90
17827;DHT22;9038;48.208;16.308;2023-06-22T06:50:36;27.00;99.90
17827;DHT22;9038;48.208;16.308;2023-06-22T06:52:38;27.00;99.90
17827;DHT22;9038;48.208;16.308;2023-06-22T06:54:40;27.00;99.90
17827;DHT22;9038;48.208;16.308;2023-06-22T06:56:44;27.10;99.90
17827;DHT22;9038;48.208;16.308;2023-06-22T06:58:50;27.10;99.90
17827;DHT22;9038;48.208;16.308;2023-06-22T07:00:52;27.10;99.90
17827;DHT22;9038;48.208;16.308;2023-06-22T07:02:54;27.00;99.90
17827;DHT22;9038;48.208;16.308;2023-06-22T07:04:56;27.00;99.90
17827;DHT22;9038;48.208;16.308;2023-06-22T07:07:00;27.00;99.90
17827;DHT22;9038;48.208;16.308;2023-06-22T07:09:03;27.10;99.90
17827;DHT22;9038;48.208;16.308;2023-06-22T07:11:05;27.30;99.90
17827;DHT22;9038;48.208;16.308;2023-06-22T07:13:08;27.40;99.90
17827;DHT22;9038;48.208;16.308;2023-06-22T07:15:11;27.50;99.90
17827;DHT22;9038;48.208;16.308;2023-06-22T07:17:13;27.50;99.90
17827;DHT22;9038;48.208;16.308;2023-06-22T07:19:15;27.50;99.90
17827;DHT22;9038;48.208;16.308;2023-06-22T07:21:16;27.50;99.90
17827;DHT22;9038;48.208;16.308;2023-06-22T07:23:18;27.60;99.90
17827;DHT22;9038;48.208;16.308;2023-06-22T07:25:20;27.70;99.90
17827;DHT22;9038;48.208;16.308;2023-06-22T07:27:22;27.80;99.90
17827;DHT22;9038;48.208;16.308;2023-06-22T07:29:26;27.80;99.90
17827;DHT22;9038;48.208;16.308;2023-06-22T07:31:28;27.80;99.90
17827;DHT22;9038;48.208;16.308;2023-06-22T07:33:30;27.80;99.90
17827;DHT22;9038;48.208;16.308;2023-06-22T07:35:32;27.70;99.90
17827;DHT22;9038;48.208;16.308;2023-06-22T07:37:34;27.80;99.90
17827;DHT22;9038;48.208;16.308;2023-06-22T07:39:36;28.00;99.90
17827;DHT22;9038;48.208;16.308;2023-06-22T07:41:39;28.20;99.90
17827;DHT22;9038;48.208;16.308;2023-06-22T07:43:41;28.40;99.90
17827;DHT22;9038;48.208;16.308;2023-06-22T07:45:49;28.60;99.90
17827;DHT22;9038;48.208;16.308;2023-06-22T07:47:53;28.70;99.90
17827;DHT22;9038;48.208;16.308;2023-06-22T07:49:57;28.90;99.90
17827;DHT22;9038;48.208;16.308;2023-06-22T07:52:01;29.20;99.90
17827;DHT22;9038;48.208;16.308;2023-06-22T07:54:03;29.50;99.90
17827;DHT22;9038;48.208;16.308;2023-06-22T07:56:05;29.60;99.90
17827;DHT22;9038;48.208;16.308;2023-06-22T07:58:07;29.80;99.90
17827;DHT22;9038;48.208;16.308;2023-06-22T08:00:10;30.00;99.90
17827;DHT22;9038;48.208;16.308;2023-06-22T08:02:16;30.40;99.90
17827;DHT22;9038;48.208;16.308;2023-06-22T08:04:18;30.70;99.90
17827;DHT22;9038;48.208;16.308;2023-06-22T08:06:20;31.10;99.90
17827;DHT22;9038;48.208;16.308;2023-06-22T08:08:22;31.50;99.90
17827;DHT22;9038;48.208;16.308;2023-06-22T08:10:24;32.10;99.90
17827;DHT22;9038;48.208;16.308;2023-06-22T08:12:26;32.70;99.90
17827;DHT22;9038;48.208;16.308;2023-06-22T08:14:29;33.20;99.20
17827;DHT22;9038;48.208;16.308;2023-06-22T08:16:31;33.60;96.10
17827;DHT22;9038;48.208;16.308;2023-06-22T08:18:35;34.00;94.60
17827;DHT22;9038;48.208;16.308;2023-06-22T08:20:36;34.30;93.50
17827;DHT22;9038;48.208;16.308;2023-06-22T08:22:38;34.70;92.70
17827;DHT22;9038;48.208;16.308;2023-06-22T08:24:40;35.20;91.10
17827;DHT22;9038;48.208;16.308;2023-06-22T08:26:42;35.70;89.20
17827;DHT22;9038;48.208;16.308;2023-06-22T08:28:44;36.00;82.50
17827;DHT22;9038;48.208;16.308;2023-06-22T08:30:46;36.70;80.30
17827;DHT22;9038;48.208;16.308;2023-06-22T08:32:48;37.30;78.60
17827;DHT22;9038;48.208;16.308;2023-06-22T08:34:51;37.80;75.00
17827;DHT22;9038;48.208;16.308;2023-06-22T08:36:54;38.20;71.50
17827;DHT22;9038;48.208;16.308;2023-06-22T08:38:56;38.40;66.50
17827;DHT22;9038;48.208;16.308;2023-06-22T08:41:03;38.50;63.60
17827;DHT22;9038;48.208;16.308;2023-06-22T08:43:05;38.50;62.00
17827;DHT22;9038;48.208;16.308;2023-06-22T08:45:08;38.50;61.30
17827;DHT22;9038;48.208;16.308;2023-06-22T08:47:10;38.70;60.00
17827;DHT22;9038;48.208;16.308;2023-06-22T08:49:12;39.00;58.80
17827;DHT22;9038;48.208;16.308;2023-06-22T08:51:15;39.10;58.50
17827;DHT22;9038;48.208;16.308;2023-06-22T08:53:17;39.50;58.10
17827;DHT22;9038;48.208;16.308;2023-06-22T08:55:19;39.70;57.00
17827;DHT22;9038;48.208;16.308;2023-06-22T08:57:21;40.10;55.30
17827;DHT22;9038;48.208;16.308;2023-06-22T08:59:23;40.40;54.90
17827;DHT22;9038;48.208;16.308;2023-06-22T09:01:25;40.70;52.30
17827;DHT22;9038;48.208;16.308;2023-06-22T09:03:27;40.40;53.10
17827;DHT22;9038;48.208;16.308;2023-06-22T09:05:29;40.30;53.00
17827;DHT22;9038;48.208;16.308;2023-06-22T09:07:32;40.00;52.10
17827;DHT22;9038;48.208;16.308;2023-06-22T09:09:35;39.90;52.70
17827;DHT22;9038;48.208;16.308;2023-06-22T09:11:37;39.90;52.80
17827;DHT22;9038;48.208;16.308;2023-06-22T09:13:39;40.20;53.30
17827;DHT22;9038;48.208;16.308;2023-06-22T09:15:41;40.60;52.80
17827;DHT22;9038;48.208;16.308;2023-06-22T09:17:43;41.20;51.50
17827;DHT22;9038;48.208;16.308;2023-06-22T09:19:46;41.50;50.80
17827;DHT22;9038;48.208;16.308;2023-06-22T09:21:49;41.90;50.20
17827;DHT22;9038;48.208;16.308;2023-06-22T09:23:53;42.60;48.60
17827;DHT22;9038;48.208;16.308;2023-06-22T09:25:55;42.70;47.50
17827;DHT22;9038;48.208;16.308;2023-06-22T09:27:57;42.90;47.40
17827;DHT22;9038;48.208;16.308;2023-06-22T09:29:59;43.00;46.90
17827;DHT22;9038;48.208;16.308;2023-06-22T09:32:01;43.30;46.50
17827;DHT22;9038;48.208;16.308;2023-06-22T09:34:03;43.30;46.00
17827;DHT22;9038;48.208;16.308;2023-06-22T09:36:05;43.10;45.80
17827;DHT22;9038;48.208;16.308;2023-06-22T09:38:08;43.10;46.00
17827;DHT22;9038;48.208;16.308;2023-06-22T09:40:12;43.40;45.60
17827;DHT22;9038;48.208;16.308;2023-06-22T09:42:16;43.70;44.70
17827;DHT22;9038;48.208;16.308;2023-06-22T09:44:18;43.80;45.00
17827;DHT22;9038;48.208;16.308;2023-06-22T09:46:20;44.10;43.70
17827;DHT22;9038;48.208;16.308;2023-06-22T09:48:25;44.00;43.90
17827;DHT22;9038;48.208;16.308;2023-06-22T09:50:27;44.20;43.60
17827;DHT22;9038;48.208;16.308;2023-06-22T09:52:29;44.00;43.50
17827;DHT22;9038;48.208;16.308;2023-06-22T09:54:31;43.50;43.80
17827;DHT22;9038;48.208;16.308;2023-06-22T09:56:34;43.50;44.20
17827;DHT22;9038;48.208;16.308;2023-06-22T09:58:38;43.60;44.00
17827;DHT22;9038;48.208;16.308;2023-06-22T10:00:40;43.10;44.20
17827;DHT22;9038;48.208;16.308;2023-06-22T10:02:42;42.70;45.50
17827;DHT22;9038;48.208;16.308;2023-06-22T10:04:44;42.90;44.70
17827;DHT22;9038;48.208;16.308;2023-06-22T10:06:46;42.70;44.10
17827;DHT22;9038;48.208;16.308;2023-06-22T10:08:50;42.60;44.70
17827;DHT22;9038;48.208;16.308;2023-06-22T10:10:52;42.90;44.90
17827;DHT22;9038;48.208;16.308;2023-06-22T10:12:57;43.30;44.10
17827;DHT22;9038;48.208;16.308;2023-06-22T10:14:59;43.30;43.70
17827;DHT22;9038;48.208;16.308;2023-06-22T10:17:02;43.00;44.10
17827;DHT22;9038;48.208;16.308;2023-06-22T10:19:04;42.90;44.30
17827;DHT22;9038;48.208;16.308;2023-06-22T10:21:06;42.90;44.60
17827;DHT22;9038;48.208;16.308;2023-06-22T10:23:08;43.10;44.40
17827;DHT22;9038;48.208;16.308;2023-06-22T10:25:11;43.40;44.20
17827;DHT22;9038;48.208;16.308;2023-06-22T10:27:20;43.40;43.80
17827;DHT22;9038;48.208;16.308;2023-06-22T10:29:23;43.20;43.70
17827;DHT22;9038;48.208;16.308;2023-06-22T10:31:25;43.50;43.50
17827;DHT22;9038;48.208;16.308;2023-06-22T10:33:27;43.80;43.20
17827;DHT22;9038;48.208;16.308;2023-06-22T10:35:29;44.00;43.40
17827;DHT22;9038;48.208;16.308;2023-06-22T10:37:31;43.90;42.60
17827;DHT22;9038;48.208;16.308;2023-06-22T10:39:33;43.50;42.30
17827;DHT22;9038;48.208;16.308;2023-06-22T10:41:35;43.40;42.60
17827;DHT22;9038;48.208;16.308;2023-06-22T10:43:37;43.50;42.30
17827;DHT22;9038;48.208;16.308;2023-06-22T10:45:40;43.50;42.30
17827;DHT22;9038;48.208;16.308;2023-06-22T10:47:42;44.10;42.00
17827;DHT22;9038;48.208;16.308;2023-06-22T10:49:44;44.40;41.10
17827;DHT22;9038;48.208;16.308;2023-06-22T10:51:46;44.60;40.80
17827;DHT22;9038;48.208;16.308;2023-06-22T10:53:48;44.80;40.00
17827;DHT22;9038;48.208;16.308;2023-06-22T10:55:51;44.90;39.70
17827;DHT22;9038;48.208;16.308;2023-06-22T10:57:54;44.70;39.50
17827;DHT22;9038;48.208;16.308;2023-06-22T10:59:56;45.30;39.60
17827;DHT22;9038;48.208;16.308;2023-06-22T11:01:59;45.50;38.30
17827;DHT22;9038;48.208;16.308;2023-06-22T11:04:01;45.40;37.80
17827;DHT22;9038;48.208;16.308;2023-06-22T11:06:03;45.00;38.30
17827;DHT22;9038;48.208;16.308;2023-06-22T11:08:05;45.00;38.70
17827;DHT22;9038;48.208;16.308;2023-06-22T11:10:08;44.40;38.10
17827;DHT22;9038;48.208;16.308;2023-06-22T11:12:09;44.10;38.40
17827;DHT22;9038;48.208;16.308;2023-06-22T11:14:11;44.10;38.70
17827;DHT22;9038;48.208;16.308;2023-06-22T11:16:13;44.00;38.50
17827;DHT22;9038;48.208;16.308;2023-06-22T11:18:18;43.60;38.90
17827;DHT22;9038;48.208;16.308;2023-06-22T11:20:20;43.60;39.20
17827;DHT22;9038;48.208;16.308;2023-06-22T11:22:22;43.80;39.00
17827;DHT22;9038;48.208;16.308;2023-06-22T11:24:23;43.60;38.90
17827;DHT22;9038;48.208;16.308;2023-06-22T11:26:25;43.50;39.10
17827;DHT22;9038;48.208;16.308;2023-06-22T11:28:36;43.60;39.20
17827;DHT22;9038;48.208;16.308;2023-06-22T11:30:37;43.40;39.60
17827;DHT22;9038;48.208;16.308;2023-06-22T11:32:39;43.00;39.80
17827;DHT22;9038;48.208;16.308;2023-06-22T11:34:42;43.10;39.80
17827;DHT22;9038;48.208;16.308;2023-06-22T11:36:44;42.80;40.20
17827;DHT22;9038;48.208;16.308;2023-06-22T11:38:48;42.60;40.20
17827;DHT22;9038;48.208;16.308;2023-06-22T11:40:50;43.00;40.60
17827;DHT22;9038;48.208;16.308;2023-06-22T11:42:52;43.50;39.50
17827;DHT22;9038;48.208;16.308;2023-06-22T11:44:54;43.60;39.40
17827;DHT22;9038;48.208;16.308;2023-06-22T11:46:56;43.80;39.30
17827;DHT22;9038;48.208;16.308;2023-06-22T11:48:58;43.60;39.40
17827;DHT22;9038;48.208;16.308;2023-06-22T11:51:08;44.00;39.20
17827;DHT22;9038;48.208;16.308;2023-06-22T11:53:17;43.70;39.00
17827;DHT22;9038;48.208;16.308;2023-06-22T11:55:19;43.40;39.50
17827;DHT22;9038;48.208;16.308;2023-06-22T11:57:21;42.80;39.90
17827;DHT22;9038;48.208;16.308;2023-06-22T11:59:22;43.00;40.40
17827;DHT22;9038;48.208;16.308;2023-06-22T12:01:24;43.10;40.40
17827;DHT22;9038;48.208;16.308;2023-06-22T12:03:26;42.80;40.30
17827;DHT22;9038;48.208;16.308;2023-06-22T12:05:29;42.50;40.90
17827;DHT22;9038;48.208;16.308;2023-06-22T12:07:32;42.50;41.10
17827;DHT22;9038;48.208;16.308;2023-06-22T12:09:34;43.00;40.80
17827;DHT22;9038;48.208;16.308;2023-06-22T12:11:36;43.30;40.10
17827;DHT22;9038;48.208;16.308;2023-06-22T12:13:38;43.10;39.90
17827;DHT22;9038;48.208;16.308;2023-06-22T12:15:40;43.10;40.30
17827;DHT22;9038;48.208;16.308;2023-06-22T12:17:44;43.60;40.50
17827;DHT22;9038;48.208;16.308;2023-06-22T12:19:46;43.70;39.20
17827;DHT22;9038;48.208;16.308;2023-06-22T12:21:48;43.30;39.60
17827;DHT22;9038;48.208;16.308;2023-06-22T12:23:51;43.20;39.80
17827;DHT22;9038;48.208;16.308;2023-06-22T12:25:53;42.60;40.30
17827;DHT22;9038;48.208;16.308;2023-06-22T12:27:55;42.40;40.80
17827;DHT22;9038;48.208;16.308;2023-06-22T12:29:57;41.90;41.40
17827;DHT22;9038;48.208;16.308;2023-06-22T12:31:59;41.50;42.20
17827;DHT22;9038;48.208;16.308;2023-06-22T12:34:01;41.60;42.10
17827;DHT22;9038;48.208;16.308;2023-06-22T12:36:03;41.60;42.00
17827;DHT22;9038;48.208;16.308;2023-06-22T12:38:05;41.60;42.00
17827;DHT22;9038;48.208;16.308;2023-06-22T12:40:11;41.80;42.10
17827;DHT22;9038;48.208;16.308;2023-06-22T12:42:13;41.60;42.00
17827;DHT22;9038;48.208;16.308;2023-06-22T12:44:15;41.70;42.30
17827;DHT22;9038;48.208;16.308;2023-06-22T12:46:17;41.50;42.70
17827;DHT22;9038;48.208;16.308;2023-06-22T12:48:18;41.50;42.80
17827;DHT22;9038;48.208;16.308;2023-06-22T12:50:20;41.60;42.10
17827;DHT22;9038;48.208;16.308;2023-06-22T12:52:22;41.80;42.10
17827;DHT22;9038;48.208;16.308;2023-06-22T12:54:24;41.90;42.10